Time;durP1;ratioP1;P1;durP2;ratioP2;P2;SDS_P1;SDS_P2;PMS_P1;PMS_P2;Temp;Humidity;BMP_temperature;BMP_pressure;BME280_temperature;BME280_humidity;BME280_pressure;Samples;Min_cycle;Max_cycle;Signal;HPM_P1;HPM_P2
2022/04/23 00:02:09;;;;;;;16.23;5.57;;;;;;;;;;5025121;28;20040;-38
2022/04/23 00:04:35;;;;;;;15.85;7.90;;;;;;;;;;5024449;28;20017;-42
2022/04/23 00:07:02;;;;;;;21.17;11.60;;;;;;;;;;5024380;28;20032;-41
2022/04/23 00:09:28;;;;;;;21.23;10.85;;;;;;;;;;5025339;28;20513;-40
2022/04/23 00:11:55;;;;;;;23.55;13.68;;;;;;;;;;5024595;28;20037;-38
2022/04/23 00:14:25;;;;;;;31.48;16.42;;;;;;;;;;5025461;28;20087;-44
2022/04/23 00:16:51;;;;;;;20.55;11.02;;;;;;;;;;5024282;28;20488;-39
2022/04/23 00:19:18;;;;;;;12.30;7.25;;;;;;;;;;5024287;28;20029;-39
2022/04/23 00:21:45;;;;;;;23.40;12.15;;;;;;;;;;5024191;28;20037;-41
2022/04/23 00:24:11;;;;;;;11.52;5.78;;;;;;;;;;5030675;28;20524;-41
2022/04/23 00:26:37;;;;;;;14.85;7.60;;;;;;;;;;5036196;28;20259;-40
2022/04/23 00:29:03;;;;;;;10.98;6.13;;;;;;;;;;5036145;28;20044;-42
2022/04/23 00:31:35;;;;;;;12.02;6.80;;;;;;;;;;5035365;28;20029;-43
2022/04/23 00:34:01;;;;;;;8.60;4.80;;;;;;;;;;5035682;28;20109;-43
2022/04/23 00:36:28;;;;;;;27.77;14.35;;;;;;;;;;5034689;28;20021;-42
2022/04/23 00:38:54;;;;;;;18.50;9.80;;;;;;;;;;5035971;28;20029;-39
2022/04/23 00:44:06;;;;;;;18.90;9.88;;;;;;;;;;5036382;28;20037;-42
2022/04/23 00:46:32;;;;;;;11.23;6.35;;;;;;;;;;5035864;28;20084;-39
2022/04/23 00:48:58;;;;;;;20.55;10.50;;;;;;;;;;5035626;28;20088;-38
2022/04/23 00:51:26;;;;;;;11.70;7.82;;;;;;;;;;5035812;28;20039;-43
2022/04/23 00:53:52;;;;;;;10.65;5.60;;;;;;;;;;5035835;28;20492;-38
2022/04/23 00:56:18;;;;;;;18.40;9.90;;;;;;;;;;5035725;28;20457;-41
2022/04/23 00:58:44;;;;;;;16.73;8.60;;;;;;;;;;5035932;28;20116;-37
2022/04/23 01:01:10;;;;;;;15.93;9.93;;;;;;;;;;5035492;28;20021;-46
2022/04/23 01:03:36;;;;;;;20.40;9.77;;;;;;;;;;5035580;28;20075;-41
2022/04/23 01:06:04;;;;;;;9.20;3.85;;;;;;;;;;5035562;28;20060;-41
2022/04/23 01:08:31;;;;;;;13.43;8.18;;;;;;;;;;5035628;28;20032;-42
2022/04/23 01:10:57;;;;;;;14.23;7.82;;;;;;;;;;5035648;28;20030;-43
2022/04/23 01:13:25;;;;;;;9.10;4.75;;;;;;;;;;5035567;28;20025;-43
2022/04/23 01:15:58;;;;;;;7.13;4.22;;;;;;;;;;5035303;28;20152;-44
2022/04/23 01:18:24;;;;;;;10.85;5.93;;;;;;;;;;5035400;28;20103;-39
2022/04/23 01:20:51;;;;;;;10.73;5.30;;;;;;;;;;5035242;28;20033;-39
2022/04/23 01:23:17;;;;;;;10.57;6.43;;;;;;;;;;5035354;28;20113;-41
2022/04/23 01:25:43;;;;;;;12.43;6.45;;;;;;;;;;5035110;28;20080;-53
2022/04/23 01:28:12;;;;;;;17.20;8.35;;;;;;;;;;5035015;28;20037;-39
2022/04/23 01:30:38;;;;;;;15.65;8.13;;;;;;;;;;5035124;28;20511;-45
2022/04/23 01:33:05;;;;;;;20.92;10.07;;;;;;;;;;5034995;28;20029;-44
2022/04/23 01:35:31;;;;;;;7.90;5.10;;;;;;;;;;5035103;28;20021;-41
2022/04/23 01:37:57;;;;;;;11.65;7.15;;;;;;;;;;5034918;28;20025;-37
2022/04/23 01:40:23;;;;;;;18.83;9.70;;;;;;;;;;5034757;28;20108;-38
2022/04/23 01:42:49;;;;;;;10.27;5.07;;;;;;;;;;5034841;28;20025;-39
2022/04/23 01:45:15;;;;;;;12.57;5.82;;;;;;;;;;5035031;28;20018;-42
2022/04/23 01:47:41;;;;;;;12.45;6.15;;;;;;;;;;5034502;28;20154;-40
2022/04/23 01:50:10;;;;;;;13.30;7.72;;;;;;;;;;5034333;28;20431;-39
2022/04/23 01:52:36;;;;;;;16.20;9.15;;;;;;;;;;5034869;28;20040;-39
2022/04/23 01:55:03;;;;;;;18.20;8.45;;;;;;;;;;5034811;28;20067;-46
2022/04/23 01:57:29;;;;;;;13.65;7.55;;;;;;;;;;5034519;28;20021;-42
2022/04/23 01:59:55;;;;;;;15.02;6.65;;;;;;;;;;5034388;28;20380;-38
2022/04/23 02:02:22;;;;;;;7.78;3.65;;;;;;;;;;5034166;28;20029;-37
2022/04/23 02:04:48;;;;;;;8.57;5.22;;;;;;;;;;5034317;28;20053;-38
2022/04/23 02:07:14;;;;;;;12.02;5.95;;;;;;;;;;5034537;28;20026;-41
2022/04/23 02:09:40;;;;;;;9.18;4.00;;;;;;;;;;5034495;28;20489;-40
2022/04/23 02:12:06;;;;;;;9.93;4.60;;;;;;;;;;5034324;28;20036;-43
2022/04/23 02:14:32;;;;;;;12.68;5.90;;;;;;;;;;5034499;28;20097;-46
2022/04/23 02:16:58;;;;;;;12.10;6.30;;;;;;;;;;5033994;28;20018;-37
2022/04/23 02:19:24;;;;;;;11.10;6.03;;;;;;;;;;5034298;28;20492;-35
2022/04/23 02:21:51;;;;;;;12.02;5.25;;;;;;;;;;5033901;28;20033;-35
2022/04/23 02:24:17;;;;;;;9.52;4.78;;;;;;;;;;5034114;28;20080;-36
2022/04/23 02:26:43;;;;;;;13.07;6.03;;;;;;;;;;5034231;28;20017;-37
2022/04/23 02:29:09;;;;;;;8.13;4.30;;;;;;;;;;5033921;28;20115;-40
2022/04/23 02:31:35;;;;;;;12.52;3.83;;;;;;;;;;5033985;28;20026;-38
2022/04/23 02:34:01;;;;;;;6.88;4.60;;;;;;;;;;5033807;28;20037;-39
2022/04/23 02:36:27;;;;;;;8.77;4.15;;;;;;;;;;5033924;28;20479;-38
2022/04/23 02:38:53;;;;;;;9.20;4.47;;;;;;;;;;5034017;28;20033;-37
2022/04/23 02:41:19;;;;;;;12.75;4.50;;;;;;;;;;5033895;28;20025;-37
2022/04/23 02:43:45;;;;;;;8.38;4.60;;;;;;;;;;5033965;28;20069;-37
2022/04/23 02:46:15;;;;;;;6.53;4.38;;;;;;;;;;5033543;28;20032;-38
2022/04/23 02:48:42;;;;;;;10.35;4.78;;;;;;;;;;5033264;28;20091;-38
2022/04/23 02:51:08;;;;;;;8.63;4.53;;;;;;;;;;5033625;28;20037;-37
2022/04/23 02:53:34;;;;;;;11.45;6.55;;;;;;;;;;5033575;28;20073;-35
2022/04/23 02:56:02;;;;;;;7.88;5.40;;;;;;;;;;5032856;28;20034;-35
2022/04/23 02:58:31;;;;;;;11.23;5.80;;;;;;;;;;5033521;28;20390;-35
2022/04/23 03:00:57;;;;;;;12.80;5.53;;;;;;;;;;5033497;28;20060;-38
2022/04/23 03:03:23;;;;;;;10.80;4.38;;;;;;;;;;5033326;28;20018;-36
2022/04/23 03:05:53;;;;;;;11.43;5.30;;;;;;;;;;5033669;28;20049;-41
2022/04/23 03:08:19;;;;;;;9.68;5.20;;;;;;;;;;5033389;28;20079;-38
2022/04/23 03:10:45;;;;;;;11.85;5.05;;;;;;;;;;5033634;28;20432;-36
2022/04/23 03:13:11;;;;;;;7.28;4.20;;;;;;;;;;5033395;28;20025;-39
2022/04/23 03:15:37;;;;;;;9.77;5.03;;;;;;;;;;5033368;28;20104;-39
2022/04/23 03:18:04;;;;;;;12.23;5.18;;;;;;;;;;5033072;28;20109;-36
2022/04/23 03:20:30;;;;;;;11.50;6.25;;;;;;;;;;5033291;28;20044;-37
2022/04/23 03:22:56;;;;;;;9.48;6.03;;;;;;;;;;5033452;28;20100;-36
2022/04/23 03:25:22;;;;;;;10.90;6.28;;;;;;;;;;5033317;28;20026;-37
2022/04/23 03:27:48;;;;;;;13.50;7.07;;;;;;;;;;5033241;28;20053;-36
2022/04/23 03:30:15;;;;;;;16.50;10.00;;;;;;;;;;5033075;28;20045;-35
2022/04/23 03:32:42;;;;;;;12.60;7.90;;;;;;;;;;5032949;28;20348;-37
2022/04/23 03:35:08;;;;;;;13.07;8.00;;;;;;;;;;5033020;28;20041;-39
2022/04/23 03:37:34;;;;;;;18.77;10.45;;;;;;;;;;5033319;28;20021;-36
2022/04/23 03:40:00;;;;;;;19.80;9.38;;;;;;;;;;5033216;28;20381;-36
2022/04/23 03:42:29;;;;;;;21.45;10.82;;;;;;;;;;5032970;28;20374;-37
2022/04/23 03:44:55;;;;;;;21.73;12.43;;;;;;;;;;5033105;28;20059;-37
2022/04/23 03:47:23;;;;;;;22.00;13.05;;;;;;;;;;5032882;28;20025;-35
2022/04/23 03:49:49;;;;;;;24.88;13.30;;;;;;;;;;5032757;28;20058;-37
2022/04/23 03:52:15;;;;;;;26.67;14.30;;;;;;;;;;5048360;28;20036;-36
2022/04/23 03:54:41;;;;;;;27.88;14.77;;;;;;;;;;5032834;28;20033;-37
2022/04/23 03:57:07;;;;;;;23.73;14.48;;;;;;;;;;5033216;28;20088;-37
2022/04/23 03:59:35;;;;;;;32.42;16.63;;;;;;;;;;5047934;28;20068;-43
2022/04/23 04:02:04;;;;;;;32.88;17.50;;;;;;;;;;5032971;28;20024;-42
2022/04/23 04:04:31;;;;;;;30.55;17.30;;;;;;;;;;5032758;28;20037;-42
2022/04/23 04:06:58;;;;;;;25.83;15.73;;;;;;;;;;5034865;28;20097;-43
2022/04/23 04:09:24;;;;;;;27.40;17.25;;;;;;;;;;5036396;28;20033;-42
2022/04/23 04:12:02;;;;;;;32.58;17.58;;;;;;;;;;5036690;28;20092;-42
2022/04/23 04:14:35;;;;;;;28.20;16.27;;;;;;;;;;5036460;28;20026;-43
2022/04/23 04:17:01;;;;;;;29.33;16.65;;;;;;;;;;5036369;28;20151;-42
2022/04/23 04:19:32;;;;;;;25.90;16.77;;;;;;;;;;5036604;28;20022;-42
2022/04/23 04:22:02;;;;;;;32.92;18.33;;;;;;;;;;5036239;28;20024;-42
2022/04/23 04:24:28;;;;;;;27.48;17.75;;;;;;;;;;5036158;28;20029;-38
2022/04/23 04:26:55;;;;;;;30.67;18.63;;;;;;;;;;5036246;28;20080;-38
2022/04/23 04:29:21;;;;;;;33.50;19.77;;;;;;;;;;5051031;28;20052;-38
2022/04/23 04:31:47;;;;;;;29.73;18.08;;;;;;;;;;5035958;28;20053;-38
2022/04/23 04:34:18;;;;;;;30.67;19.52;;;;;;;;;;5036009;28;20047;-37
2022/04/23 04:36:45;;;;;;;29.98;18.60;;;;;;;;;;5036033;28;20021;-38
2022/04/23 04:39:11;;;;;;;49.53;28.80;;;;;;;;;;5035929;28;20282;-37
2022/04/23 04:41:37;;;;;;;53.40;31.83;;;;;;;;;;5035927;28;20033;-37
2022/04/23 04:44:07;;;;;;;46.35;28.35;;;;;;;;;;5035925;28;20052;-37
2022/04/23 04:46:34;;;;;;;42.72;24.33;;;;;;;;;;5035948;28;20029;-36
2022/04/23 04:49:00;;;;;;;35.88;22.08;;;;;;;;;;5035474;28;20056;-38
2022/04/23 04:51:26;;;;;;;31.13;19.00;;;;;;;;;;5035651;28;20436;-38
2022/04/23 04:53:53;;;;;;;35.28;21.15;;;;;;;;;;5035727;28;20091;-44
2022/04/23 04:56:19;;;;;;;33.55;20.65;;;;;;;;;;5035783;28;20018;-38
2022/04/23 04:58:46;;;;;;;37.60;22.75;;;;;;;;;;5035581;28;20056;-37
2022/04/23 05:01:12;;;;;;;76.43;49.92;;;;;;;;;;5035578;28;20037;-39
2022/04/23 05:03:41;;;;;;;119.20;80.35;;;;;;;;;;5035737;28;20029;-38
2022/04/23 05:06:07;;;;;;;137.02;92.95;;;;;;;;;;5035644;28;20083;-37
2022/04/23 05:08:36;;;;;;;99.75;68.63;;;;;;;;;;5035578;28;20044;-38
2022/04/23 05:11:03;;;;;;;65.22;41.40;;;;;;;;;;5050977;28;20029;-39
2022/04/23 05:13:30;;;;;;;52.78;32.47;;;;;;;;;;5035320;28;20080;-39
2022/04/23 05:15:56;;;;;;;42.38;25.52;;;;;;;;;;5035237;28;20108;-37
2022/04/23 05:18:22;;;;;;;35.22;19.70;;;;;;;;;;5034665;28;20018;-42
2022/04/23 05:20:49;;;;;;;33.03;21.73;;;;;;;;;;5035077;28;20471;-42
2022/04/23 05:23:15;;;;;;;34.30;20.27;;;;;;;;;;5035189;28;20075;-44
2022/04/23 05:25:41;;;;;;;32.80;18.27;;;;;;;;;;5035116;28;20462;-42
2022/04/23 05:28:08;;;;;;;33.30;19.13;;;;;;;;;;5035102;28;20052;-42
2022/04/23 05:30:37;;;;;;;33.65;18.80;;;;;;;;;;5034875;28;20744;-42
2022/04/23 05:33:04;;;;;;;28.85;18.77;;;;;;;;;;5034968;28;20017;-38
2022/04/23 05:35:30;;;;;;;30.63;19.08;;;;;;;;;;5034956;28;20026;-39
2022/04/23 05:37:56;;;;;;;28.63;18.42;;;;;;;;;;5035050;28;20022;-37
2022/04/23 05:40:22;;;;;;;30.77;18.63;;;;;;;;;;5035033;28;20033;-37
2022/04/23 05:42:48;;;;;;;34.53;20.63;;;;;;;;;;5034855;28;20100;-37
2022/04/23 05:45:14;;;;;;;33.05;19.88;;;;;;;;;;5034722;28;20088;-38
2022/04/23 05:47:43;;;;;;;37.03;20.88;;;;;;;;;;5034636;28;20108;-38
2022/04/23 05:50:09;;;;;;;44.15;22.38;;;;;;;;;;5034324;28;20053;-37
2022/04/23 05:52:37;;;;;;;39.70;22.27;;;;;;;;;;5034582;28;20025;-37
2022/04/23 05:55:04;;;;;;;41.50;22.40;;;;;;;;;;5034561;28;20028;-37
2022/04/23 05:57:31;;;;;;;42.30;21.27;;;;;;;;;;5034528;28;20049;-39
2022/04/23 05:59:57;;;;;;;38.20;21.45;;;;;;;;;;5034297;28;20116;-38
2022/04/23 06:02:24;;;;;;;32.35;19.55;;;;;;;;;;5034243;28;20021;-38
2022/04/23 06:04:50;;;;;;;33.15;19.25;;;;;;;;;;5034503;28;20028;-38
2022/04/23 06:07:16;;;;;;;30.92;18.73;;;;;;;;;;5049849;28;20386;-43
2022/04/23 06:09:43;;;;;;;32.05;19.50;;;;;;;;;;5034264;28;20033;-38
2022/04/23 06:12:09;;;;;;;31.60;19.25;;;;;;;;;;5034294;28;20026;-37
2022/04/23 06:14:35;;;;;;;41.90;20.80;;;;;;;;;;5034252;28;20021;-37
2022/04/23 06:17:01;;;;;;;37.67;21.35;;;;;;;;;;5034156;28;20041;-37
2022/04/23 06:19:31;;;;;;;30.55;19.20;;;;;;;;;;5034255;28;20022;-37
2022/04/23 06:21:59;;;;;;;29.08;18.23;;;;;;;;;;5033919;28;20453;-40
2022/04/23 06:24:26;;;;;;;28.60;16.92;;;;;;;;;;5033997;28;20030;-37
2022/04/23 06:26:52;;;;;;;26.83;16.95;;;;;;;;;;5033668;28;20183;-43
2022/04/23 06:29:20;;;;;;;26.38;16.70;;;;;;;;;;5033276;28;20037;-38
2022/04/23 06:31:46;;;;;;;26.70;16.45;;;;;;;;;;5033336;28;20026;-38
2022/04/23 06:34:13;;;;;;;26.90;16.50;;;;;;;;;;5033630;28;20028;-37
2022/04/23 06:36:42;;;;;;;29.90;17.60;;;;;;;;;;5033703;28;20018;-37
2022/04/23 06:39:08;;;;;;;29.55;18.73;;;;;;;;;;5033667;28;20024;-38
2022/04/23 06:41:34;;;;;;;29.90;18.98;;;;;;;;;;5034030;28;20053;-38
2022/04/23 06:44:00;;;;;;;28.92;16.88;;;;;;;;;;5033616;28;20093;-37
2022/04/23 06:46:27;;;;;;;23.67;16.00;;;;;;;;;;5033668;28;20099;-37
2022/04/23 06:48:53;;;;;;;25.08;15.85;;;;;;;;;;5033300;28;20045;-38
2022/04/23 06:51:19;;;;;;;23.88;15.80;;;;;;;;;;5033572;28;20033;-36
2022/04/23 06:53:45;;;;;;;27.38;16.35;;;;;;;;;;5048755;28;20405;-38
2022/04/23 06:56:11;;;;;;;36.72;19.83;;;;;;;;;;5033563;28;20037;-38
2022/04/23 06:58:39;;;;;;;33.33;18.67;;;;;;;;;;5033387;28;20544;-39
2022/04/23 07:01:08;;;;;;;29.15;15.20;;;;;;;;;;5033686;28;20076;-37
2022/04/23 07:03:34;;;;;;;31.90;17.80;;;;;;;;;;5033391;28;20060;-36
2022/04/23 07:06:01;;;;;;;24.80;16.00;;;;;;;;;;5033379;28;20112;-38
2022/04/23 07:08:27;;;;;;;21.48;14.98;;;;;;;;;;5033473;28;20013;-37
2022/04/23 07:10:53;;;;;;;25.20;14.73;;;;;;;;;;5033397;28;20029;-37
2022/04/23 07:13:19;;;;;;;31.63;17.05;;;;;;;;;;5033445;28;20018;-47
2022/04/23 07:15:46;;;;;;;23.95;15.48;;;;;;;;;;5044644;28;20452;-37
2022/04/23 07:18:12;;;;;;;23.35;14.90;;;;;;;;;;5053315;28;20142;-42
2022/04/23 07:20:39;;;;;;;27.33;14.75;;;;;;;;;;5053390;28;20033;-38
2022/04/23 07:25:52;;;;;;;31.23;17.80;;;;;;;;;;5053433;28;20036;-40
2022/04/23 07:28:21;;;;;;;34.45;19.83;;;;;;;;;;5052935;28;20029;-39
2022/04/23 07:30:47;;;;;;;44.05;23.65;;;;;;;;;;5053058;28;20033;-38
2022/04/23 07:37:28;;;;;;;32.83;20.13;;;;;;;;;;5052858;28;20455;-38
2022/04/23 07:38:44;;;;;;;32.55;18.95;;;;;;;;;;5052436;28;20120;-39
2022/04/23 07:41:11;;;;;;;26.38;16.50;;;;;;;;;;5053102;28;20040;-38
2022/04/23 07:43:37;;;;;;;28.77;18.42;;;;;;;;;;5056365;28;20020;-37
2022/04/23 07:46:04;;;;;;;34.22;21.60;;;;;;;;;;5056252;28;20468;-35
2022/04/23 07:48:30;;;;;;;27.83;19.42;;;;;;;;;;5056242;28;20036;-37
2022/04/23 07:50:56;;;;;;;35.15;22.15;;;;;;;;;;5055962;28;20541;-36
2022/04/23 07:53:24;;;;;;;44.65;27.05;;;;;;;;;;5055956;28;20037;-36
2022/04/23 07:55:50;;;;;;;33.17;20.98;;;;;;;;;;5056175;28;20029;-36
2022/04/23 07:58:18;;;;;;;29.85;18.83;;;;;;;;;;5056042;28;20021;-36
2022/04/23 08:00:45;;;;;;;29.42;19.17;;;;;;;;;;5056084;28;20051;-37
2022/04/23 08:03:14;;;;;;;27.75;18.05;;;;;;;;;;5056018;28;20035;-38
2022/04/23 08:05:40;;;;;;;30.23;18.17;;;;;;;;;;5056513;28;20033;-38
2022/04/23 08:08:06;;;;;;;30.08;17.63;;;;;;;;;;5056366;28;20100;-37
2022/04/23 08:10:32;;;;;;;32.15;20.23;;;;;;;;;;5056426;28;20119;-38
2022/04/23 08:12:58;;;;;;;35.05;20.23;;;;;;;;;;5056555;28;20032;-38
2022/04/23 08:15:26;;;;;;;25.83;16.38;;;;;;;;;;5056506;28;20052;-38
2022/04/23 08:17:52;;;;;;;24.65;16.27;;;;;;;;;;5056211;28;20017;-37
2022/04/23 08:20:18;;;;;;;36.30;19.38;;;;;;;;;;5054632;28;20037;-38
2022/04/23 08:22:44;;;;;;;29.90;19.45;;;;;;;;;;5056202;28;20028;-44
2022/04/23 08:25:11;;;;;;;33.17;20.90;;;;;;;;;;5056377;28;20048;-39
2022/04/23 08:27:53;;;;;;;34.55;20.83;;;;;;;;;;5034239;28;20026;-39
2022/04/23 08:30:35;;;;;;;47.65;25.52;;;;;;;;;;5025081;28;20047;-40
2022/04/23 08:33:02;;;;;;;37.08;20.48;;;;;;;;;;5024073;28;20507;-39
2022/04/23 08:35:28;;;;;;;89.75;51.88;;;;;;;;;;5033330;28;20107;-41
2022/04/23 08:37:54;;;;;;;80.68;45.85;;;;;;;;;;5023990;28;20129;-41
2022/04/23 08:40:21;;;;;;;38.83;23.80;;;;;;;;;;5025355;28;20021;-39
2022/04/23 08:42:47;;;;;;;72.00;43.97;;;;;;;;;;5024184;28;20783;-37
2022/04/23 08:45:13;;;;;;;117.32;71.78;;;;;;;;;;5023702;28;20170;-39
2022/04/23 08:47:46;;;;;;;97.18;57.88;;;;;;;;;;5023688;28;20025;-38
2022/04/23 08:50:13;;;;;;;79.47;47.72;;;;;;;;;;5024826;28;20425;-40
2022/04/23 08:52:42;;;;;;;56.05;33.33;;;;;;;;;;5023170;28;20528;-42
2022/04/23 08:55:08;;;;;;;48.25;31.23;;;;;;;;;;5022582;28;20156;-40
2022/04/23 08:57:36;;;;;;;109.10;66.10;;;;;;;;;;5024206;28;20553;-39
2022/04/23 09:00:08;;;;;;;38.88;23.58;;;;;;;;;;5024931;28;20033;-38
2022/04/23 09:02:35;;;;;;;33.13;21.33;;;;;;;;;;5023446;28;20647;-41
2022/04/23 09:05:01;;;;;;;28.92;18.35;;;;;;;;;;5023715;28;20101;-40
2022/04/23 09:07:28;;;;;;;30.65;17.85;;;;;;;;;;5023602;28;20029;-39
2022/04/23 09:09:55;;;;;;;47.40;28.05;;;;;;;;;;5024218;28;20123;-42
2022/04/23 09:12:24;;;;;;;40.63;25.33;;;;;;;;;;5023677;28;20021;-44
2022/04/23 09:14:50;;;;;;;25.35;16.83;;;;;;;;;;5023480;28;20536;-46
2022/04/23 09:25:42;;;;;;;32.00;17.08;;;;;;;;;;5023023;28;20044;-42
2022/04/23 09:28:20;;;;;;;21.92;16.65;;;;;;;;;;5022303;28;20524;-42
2022/04/23 09:30:50;;;;;;;24.90;15.98;;;;;;;;;;5023032;28;20148;-47
2022/04/23 09:33:16;;;;;;;33.45;19.92;;;;;;;;;;5022786;28;20025;-37
2022/04/23 09:35:57;;;;;;;27.55;17.98;;;;;;;;;;5024096;28;20136;-43
2022/04/23 09:38:24;;;;;;;28.42;17.83;;;;;;;;;;5023795;28;20028;-40
2022/04/23 09:40:51;;;;;;;26.50;17.42;;;;;;;;;;5023000;28;20512;-46
2022/04/23 09:43:24;;;;;;;35.65;20.70;;;;;;;;;;5022925;28;20348;-42
2022/04/23 09:45:59;;;;;;;24.90;15.38;;;;;;;;;;5024217;28;20611;-41
2022/04/23 09:48:25;;;;;;;20.92;13.90;;;;;;;;;;5022336;28;20083;-43
2022/04/23 09:50:51;;;;;;;23.60;13.48;;;;;;;;;;5022003;28;20128;-42
2022/04/23 09:53:18;;;;;;;26.05;18.20;;;;;;;;;;5023902;28;20043;-42
2022/04/23 09:55:45;;;;;;;28.20;19.48;;;;;;;;;;5022723;28;20090;-40
2022/04/23 09:58:12;;;;;;;41.08;24.77;;;;;;;;;;5022882;28;20025;-47
2022/04/23 10:00:45;;;;;;;21.38;14.88;;;;;;;;;;5022544;28;20090;-41
2022/04/23 10:03:12;;;;;;;20.70;15.55;;;;;;;;;;5023933;28;20040;-43
2022/04/23 10:05:40;;;;;;;24.27;15.10;;;;;;;;;;5031801;28;20037;-36
2022/04/23 10:08:11;;;;;;;28.95;19.40;;;;;;;;;;5022683;28;20048;-47
2022/04/23 10:10:41;;;;;;;22.42;14.63;;;;;;;;;;5023405;28;20033;-43
2022/04/23 10:13:08;;;;;;;65.38;36.53;;;;;;;;;;5022493;28;20354;-42
2022/04/23 10:15:34;;;;;;;25.27;17.80;;;;;;;;;;5023131;28;20480;-43
2022/04/23 10:18:00;;;;;;;82.80;51.55;;;;;;;;;;5022126;28;20021;-45
2022/04/23 10:20:29;;;;;;;29.17;17.23;;;;;;;;;;5022771;28;20059;-44
2022/04/23 10:23:08;;;;;;;21.60;13.88;;;;;;;;;;5024097;28;20029;-44
2022/04/23 10:25:43;;;;;;;31.40;17.30;;;;;;;;;;5022599;28;20041;-46
2022/04/23 10:28:09;;;;;;;26.40;15.15;;;;;;;;;;5022152;28;20017;-45
2022/04/23 10:30:35;;;;;;;20.88;14.43;;;;;;;;;;5021782;28;20040;-45
2022/04/23 10:33:20;;;;;;;19.88;12.90;;;;;;;;;;5021959;28;20021;-45
2022/04/23 10:36:08;;;;;;;26.98;15.73;;;;;;;;;;5021922;28;20067;-42
2022/04/23 10:38:38;;;;;;;22.33;13.80;;;;;;;;;;5022899;28;20048;-43
2022/04/23 10:41:05;;;;;;;19.48;11.82;;;;;;;;;;5023139;28;20507;-41
2022/04/23 10:43:31;;;;;;;19.73;11.45;;;;;;;;;;5021742;28;20030;-39
2022/04/23 10:45:59;;;;;;;23.17;14.15;;;;;;;;;;5021816;28;20033;-40
2022/04/23 10:48:25;;;;;;;29.77;14.98;;;;;;;;;;5025575;28;20025;-43
2022/04/23 10:51:02;;;;;;;32.45;14.00;;;;;;;;;;5052059;28;20033;-41
2022/04/23 10:53:48;;;;;;;35.50;20.17;;;;;;;;;;5053518;28;20029;-39
2022/04/23 10:56:16;;;;;;;16.60;10.07;;;;;;;;;;5053266;28;20380;-43
2022/04/23 10:58:42;;;;;;;25.42;11.70;;;;;;;;;;5052112;28;20033;-45
2022/04/23 11:01:20;;;;;;;15.18;10.48;;;;;;;;;;5053368;28;20075;-41
2022/04/23 11:03:50;;;;;;;17.17;11.15;;;;;;;;;;5053185;28;20036;-46
2022/04/23 11:12:18;;;;;;;17.67;11.18;;;;;;;;;;5053606;28;20531;-38
2022/04/23 11:14:47;;;;;;;22.80;12.57;;;;;;;;;;5053227;28;20040;-40
2022/04/23 11:17:14;;;;;;;18.17;11.27;;;;;;;;;;5052644;28;20104;-39
2022/04/23 11:19:43;;;;;;;31.98;16.05;;;;;;;;;;5053052;28;20029;-46
2022/04/23 11:22:10;;;;;;;19.27;9.15;;;;;;;;;;5052159;28;20033;-44
2022/04/23 11:24:37;;;;;;;14.43;8.55;;;;;;;;;;5053249;28;20051;-38
2022/04/23 11:27:03;;;;;;;14.40;9.95;;;;;;;;;;5053094;28;20142;-42
2022/04/23 11:29:29;;;;;;;15.90;10.65;;;;;;;;;;5053079;28;20025;-40
2022/04/23 11:31:58;;;;;;;13.15;9.82;;;;;;;;;;5053054;28;20029;-44
2022/04/23 11:34:27;;;;;;;13.40;9.63;;;;;;;;;;5053140;28;20040;-41
2022/04/23 11:36:53;;;;;;;35.17;19.00;;;;;;;;;;5053135;28;20495;-40
2022/04/23 11:39:27;;;;;;;16.20;8.95;;;;;;;;;;5052917;28;20041;-46
2022/04/23 11:41:53;;;;;;;12.27;8.80;;;;;;;;;;5052923;28;20025;-46
2022/04/23 11:45:08;;;;;;;13.88;8.40;;;;;;;;;;5052797;28;20079;-44
2022/04/23 11:47:10;;;;;;;10.63;7.80;;;;;;;;;;5048984;28;20025;-40
2022/04/23 11:49:36;;;;;;;14.57;8.82;;;;;;;;;;5052956;28;20059;-39
2022/04/23 11:52:06;;;;;;;11.07;7.97;;;;;;;;;;5052823;28;20071;-45
2022/04/23 11:54:36;;;;;;;19.05;8.68;;;;;;;;;;5030284;28;20053;-45
2022/04/23 11:57:02;;;;;;;11.80;8.02;;;;;;;;;;5021384;28;20484;-41
2022/04/23 11:59:35;;;;;;;12.20;9.07;;;;;;;;;;5020602;28;20381;-46
2022/04/23 12:02:01;;;;;;;12.25;9.43;;;;;;;;;;5018872;28;20041;-46
2022/04/23 12:04:27;;;;;;;14.57;8.52;;;;;;;;;;5021289;28;20052;-46
2022/04/23 12:07:01;;;;;;;14.77;10.02;;;;;;;;;;5020345;28;20374;-44
2022/04/23 12:09:27;;;;;;;15.88;9.30;;;;;;;;;;5060626;28;20024;-44
2022/04/23 12:11:59;;;;;;;15.25;8.82;;;;;;;;;;5072500;28;20029;-45
2022/04/23 12:14:25;;;;;;;12.13;8.30;;;;;;;;;;5072554;28;20024;-47
2022/04/23 12:16:51;;;;;;;13.48;8.60;;;;;;;;;;5072700;28;20029;-47
2022/04/23 12:19:18;;;;;;;13.90;10.02;;;;;;;;;;5072486;28;20024;-38
2022/04/23 12:21:59;;;;;;;16.85;11.57;;;;;;;;;;5072348;28;20037;-41
2022/04/23 12:24:32;;;;;;;16.23;11.98;;;;;;;;;;5072431;28;20049;-46
2022/04/23 12:27:03;;;;;;;19.98;13.30;;;;;;;;;;5071105;28;20071;-45
2022/04/23 12:40:57;;;;;;;22.00;13.75;;;;;;;;;;5076605;28;20040;-49
2022/04/23 12:43:33;;;;;;;17.98;12.32;;;;;;;;;;5075687;28;20043;-49
2022/04/23 12:46:04;;;;;;;16.92;11.70;;;;;;;;;;5073298;28;20027;-49
2022/04/23 12:48:30;;;;;;;20.75;15.52;;;;;;;;;;5052553;28;20040;-40
2022/04/23 12:51:05;;;;;;;23.60;16.42;;;;;;;;;;5055328;28;20549;-43
2022/04/23 12:53:32;;;;;;;18.35;12.27;;;;;;;;;;5030650;28;20040;-42
2022/04/23 12:55:59;;;;;;;17.35;11.23;;;;;;;;;;5024003;28;20048;-42
2022/04/23 12:58:28;;;;;;;18.60;11.27;;;;;;;;;;5032471;28;20149;-39
2022/04/23 13:00:57;;;;;;;13.38;9.48;;;;;;;;;;5024182;28;20028;-41
2022/04/23 13:03:37;;;;;;;16.02;11.68;;;;;;;;;;5023222;28;20025;-39
2022/04/23 13:08:56;;;;;;;;;;;;;;;;;;5042372;28;20501;-41
2022/04/23 13:11:27;;;;;;;18.75;12.02;;;;;;;;;;5022120;28;19916;-39
2022/04/23 13:13:57;;;;;;;11.90;10.18;;;;;;;;;;5022783;28;20497;-41
2022/04/23 13:16:24;;;;;;;12.50;10.40;;;;;;;;;;5023840;28;20060;-44
2022/04/23 13:18:52;;;;;;;13.07;9.10;;;;;;;;;;5023772;28;20104;-43
2022/04/23 13:21:18;;;;;;;12.63;9.30;;;;;;;;;;5022800;28;20042;-39
2022/04/23 13:23:44;;;;;;;19.25;12.57;;;;;;;;;;5022980;28;20056;-42
2022/04/23 13:26:10;;;;;;;18.17;12.60;;;;;;;;;;5022582;28;20045;-38
2022/04/23 13:28:36;;;;;;;20.63;12.68;;;;;;;;;;5024064;28;20052;-42
2022/04/23 13:31:03;;;;;;;13.57;10.48;;;;;;;;;;5022232;28;20044;-46
2022/04/23 13:33:29;;;;;;;13.07;10.20;;;;;;;;;;5022855;28;20039;-46
2022/04/23 13:35:55;;;;;;;14.25;9.50;;;;;;;;;;5022357;28;20076;-44
2022/04/23 13:38:21;;;;;;;13.73;8.73;;;;;;;;;;5022583;28;20423;-44
2022/04/23 13:40:48;;;;;;;13.13;9.05;;;;;;;;;;5021889;28;20030;-42
2022/04/23 13:43:15;;;;;;;22.40;11.63;;;;;;;;;;5022694;28;20021;-42
2022/04/23 13:45:41;;;;;;;24.20;13.38;;;;;;;;;;5022517;28;20032;-40
2022/04/23 13:48:08;;;;;;;21.55;12.00;;;;;;;;;;5022525;28;20457;-43
2022/04/23 13:50:34;;;;;;;18.90;12.25;;;;;;;;;;5021584;28;20053;-44
2022/04/23 13:53:00;;;;;;;15.85;9.95;;;;;;;;;;5022379;28;20428;-42
2022/04/23 13:55:26;;;;;;;17.23;12.25;;;;;;;;;;5032963;28;20378;-41
2022/04/23 13:57:52;;;;;;;17.95;11.95;;;;;;;;;;5021189;28;20361;-43
2022/04/23 14:00:19;;;;;;;12.15;9.73;;;;;;;;;;5022017;28;20029;-42
2022/04/23 14:11:01;;;;;;;14.63;10.93;;;;;;;;;;5023153;28;20161;-45
2022/04/23 14:13:27;;;;;;;17.25;12.18;;;;;;;;;;5023096;28;20028;-43
2022/04/23 14:15:53;;;;;;;15.45;11.07;;;;;;;;;;5021490;28;20746;-45
2022/04/23 14:18:19;;;;;;;12.50;9.68;;;;;;;;;;5021762;28;20689;-45
2022/04/23 14:20:45;;;;;;;18.20;12.55;;;;;;;;;;5021544;28;20040;-45
2022/04/23 14:23:11;;;;;;;23.17;12.63;;;;;;;;;;5021649;28;20124;-43
2022/04/23 14:25:40;;;;;;;17.33;10.45;;;;;;;;;;5021684;28;20040;-41
2022/04/23 14:28:06;;;;;;;24.42;13.95;;;;;;;;;;5021468;28;20242;-44
2022/04/23 14:30:35;;;;;;;22.20;14.88;;;;;;;;;;5021543;28;20091;-42
2022/04/23 14:33:01;;;;;;;29.65;19.02;;;;;;;;;;5021444;28;20244;-46
2022/04/23 14:35:27;;;;;;;17.88;11.70;;;;;;;;;;5021267;28;20535;-43
2022/04/23 14:37:53;;;;;;;20.58;13.43;;;;;;;;;;5021418;28;20073;-43
2022/04/23 14:40:21;;;;;;;19.85;12.57;;;;;;;;;;5021270;28;20029;-43
2022/04/23 14:42:49;;;;;;;20.65;13.23;;;;;;;;;;5021796;28;20017;-41
2022/04/23 14:45:18;;;;;;;15.45;10.00;;;;;;;;;;5021177;28;20040;-42
2022/04/23 14:47:50;;;;;;;18.65;13.48;;;;;;;;;;5021181;28;20415;-45
2022/04/23 14:50:17;;;;;;;17.45;9.95;;;;;;;;;;5021808;28;20972;-42
2022/04/23 14:55:28;;;;;;;15.57;10.88;;;;;;;;;;5021759;28;20594;-42
2022/04/23 14:57:54;;;;;;;21.35;14.98;;;;;;;;;;5033388;28;20025;-39
2022/04/23 15:00:20;;;;;;;14.63;10.13;;;;;;;;;;5033625;28;20433;-38
2022/04/23 15:02:46;;;;;;;26.90;16.17;;;;;;;;;;5033421;28;20105;-43
2022/04/23 15:05:13;;;;;;;17.92;11.75;;;;;;;;;;5033455;28;20029;-37
2022/04/23 15:07:39;;;;;;;16.65;11.48;;;;;;;;;;5032136;28;20021;-46
2022/04/23 15:10:06;;;;;;;21.45;14.07;;;;;;;;;;5033708;28;20037;-44
2022/04/23 15:12:32;;;;;;;18.85;13.02;;;;;;;;;;5033312;28;20100;-39